Time;durP1;ratioP1;P1;durP2;ratioP2;P2;SDS_P1;SDS_P2;PMS_P1;PMS_P2;Temp;Humidity;BMP_temperature;BMP_pressure;BME280_temperature;BME280_humidity;BME280_pressure;Samples;Min_cycle;Max_cycle;Signal;HPM_P1;HPM_P2
2022/02/09 00:00:45;;;;;;;12.73;6.13;;;26.60;91.30;;;;;;5126636;28;20275;-55
2022/02/09 00:03:16;;;;;;;10.43;6.38;;;26.60;91.30;;;;;;5126725;28;20023;-55
2022/02/09 00:08:11;;;;;;;18.88;11.00;;;26.50;91.20;;;;;;5127245;28;20039;-56
2022/02/09 00:10:40;;;;;;;11.43;8.07;;;26.50;91.10;;;;;;5127002;28;20223;-56
2022/02/09 00:13:33;;;;;;;10.38;6.70;;;26.50;91.10;;;;;;5126698;28;20047;-58
2022/02/09 00:18:36;;;;;;;10.65;6.10;;;26.50;91.00;;;;;;5126851;28;20023;-55
2022/02/09 00:21:25;;;;;;;7.22;5.90;;;26.50;91.10;;;;;;5126666;28;20028;-55
2022/02/09 00:29:26;;;;;;;9.50;6.57;;;26.50;91.00;;;;;;5126524;28;20022;-53
2022/02/09 00:59:10;;;;;;;9.60;5.45;;;26.50;91.10;;;;;;5125807;28;20237;-55
2022/02/09 01:00:08;;;;;;;6.32;5.72;;;26.40;91.10;;;;;;5125778;28;20057;-51
2022/02/09 01:38:16;;;;;;;6.97;4.60;;;26.30;90.70;;;;;;5124867;28;20376;-52
2022/02/09 01:41:49;;;;;;;7.03;4.00;;;26.30;90.70;;;;;;5125027;28;20023;-53
2022/02/09 01:57:12;;;;;;;8.05;4.20;;;26.10;90.70;;;;;;5138827;27;20127;-52
2022/02/09 01:59:40;;;;;;;8.10;4.50;;;26.10;90.90;;;;;;5145575;27;20307;-49
2022/02/09 02:02:07;;;;;;;9.98;4.28;;;26.10;90.90;;;;;;5144929;27;20095;-58
2022/02/09 02:04:35;;;;;;;8.00;3.80;;;26.00;90.80;;;;;;5145397;27;20027;-53
2022/02/09 02:07:07;;;;;;;10.57;4.18;;;26.10;90.80;;;;;;5145456;28;20065;-49
2022/02/09 02:09:37;;;;;;;10.70;3.55;;;26.00;90.80;;;;;;5145291;28;20024;-55
2022/02/09 02:12:15;;;;;;;6.63;3.50;;;26.00;91.00;;;;;;5115553;28;20052;-51
2022/02/09 02:14:51;;;;;;;7.43;3.70;;;26.00;91.00;;;;;;5124763;28;20095;-55
2022/02/09 02:17:27;;;;;;;9.57;3.30;;;26.00;91.00;;;;;;5124483;28;20092;-53
2022/02/09 02:19:59;;;;;;;6.68;3.72;;;26.00;91.00;;;;;;5124561;28;20028;-50
2022/02/09 02:33:08;;;;;;;7.10;3.70;;;26.10;90.90;;;;;;5104041;28;20012;-51
2022/02/09 02:44:12;;;;;;;10.07;7.05;;;26.20;90.90;;;;;;5108031;28;20028;-53
2022/02/09 02:47:09;;;;;;;9.98;6.97;;;26.20;91.00;;;;;;5107804;28;20020;-54
2022/02/09 03:11:16;;;;;;;8.48;6.57;;;26.10;90.90;;;;;;5112541;28;20102;-53
2022/02/09 03:13:54;;;;;;;9.50;5.80;;;26.10;90.90;;;;;;5106503;28;20228;-57
2022/02/09 03:16:36;;;;;;;9.50;5.95;;;26.10;90.80;;;;;;5118375;28;20079;-53
2022/02/09 03:19:31;;;;;;;10.65;6.00;;;26.10;90.90;;;;;;5127648;28;20020;-55
2022/02/09 03:27:34;;;;;;;7.15;4.97;;;26.10;90.80;;;;;;5127545;28;20053;-51
2022/02/09 03:43:45;;;;;;;8.07;4.70;;;26.10;90.70;;;;;;5127152;28;20252;-51
2022/02/09 03:48:53;;;;;;;6.13;4.28;;;26.10;90.60;;;;;;5126961;28;20076;-54
2022/02/09 03:56:28;;;;;;;5.45;3.25;;;26.00;90.30;;;;;;5126902;28;20037;-53
2022/02/09 03:58:55;;;;;;;6.45;3.17;;;26.00;90.30;;;;;;5126955;28;20028;-56
2022/02/09 04:01:25;;;;;;;5.85;3.03;;;26.00;90.30;;;;;;5126601;28;20028;-56
2022/02/09 04:03:51;;;;;;;8.98;3.13;;;26.00;90.20;;;;;;5126789;28;20035;-57
2022/02/09 04:06:18;;;;;;;8.43;3.00;;;26.00;90.10;;;;;;5126615;28;20030;-54
2022/02/09 04:08:56;;;;;;;5.82;2.92;;;26.00;90.10;;;;;;5126523;28;20031;-50
2022/02/09 04:11:32;;;;;;;6.32;3.35;;;26.00;90.10;;;;;;5126313;28;20370;-52
2022/02/09 04:38:37;;;;;;;10.82;3.40;;;26.00;90.30;;;;;;5125948;28;20062;-53
2022/02/09 04:51:34;;;;;;;13.60;3.78;;;26.00;90.50;;;;;;5125744;28;20065;-53
2022/02/09 04:54:29;;;;;;;6.05;3.20;;;26.00;90.50;;;;;;5125701;28;20016;-55
2022/02/09 04:59:51;;;;;;;9.20;4.28;;;25.90;90.50;;;;;;5125746;28;20024;-54
2022/02/09 05:02:47;;;;;;;8.52;4.13;;;26.00;90.60;;;;;;5124288;28;20024;-54
2022/02/09 05:21:58;;;;;;;6.45;2.63;;;25.90;90.40;;;;;;5101652;28;20062;-53
2022/02/09 05:27:14;;;;;;;8.32;2.40;;;25.90;90.50;;;;;;5125064;28;20316;-60
2022/02/09 05:29:41;;;;;;;6.78;2.10;;;25.90;90.40;;;;;;5125122;28;20028;-53
2022/02/09 05:32:08;;;;;;;5.60;2.08;;;25.90;90.30;;;;;;5124955;28;20026;-55
2022/02/09 05:34:34;;;;;;;4.25;1.65;;;25.90;90.20;;;;;;5125303;28;20015;-54
2022/02/09 05:37:01;;;;;;;7.60;1.98;;;25.90;90.20;;;;;;5124702;28;20057;-53
2022/02/09 05:39:28;;;;;;;3.90;1.60;;;25.90;90.10;;;;;;5125148;28;20012;-54
2022/02/09 05:41:55;;;;;;;6.45;1.63;;;25.90;90.00;;;;;;5124938;28;20029;-55
2022/02/09 05:44:23;;;;;;;7.68;1.65;;;25.90;90.00;;;;;;5124445;28;20091;-57
2022/02/09 05:47:17;;;;;;;5.10;1.58;;;25.80;89.90;;;;;;5124729;28;20338;-56
2022/02/09 05:59:49;;;;;;;5.35;1.45;;;25.80;89.60;;;;;;5125209;28;20030;-58
2022/02/09 06:02:16;;;;;;;3.38;1.27;;;25.80;89.50;;;;;;5124293;28;20103;-57
2022/02/09 06:04:43;;;;;;;8.48;1.30;;;25.80;89.50;;;;;;5124795;28;20019;-54
2022/02/09 06:07:12;;;;;;;4.22;1.42;;;25.80;89.40;;;;;;5124789;28;20027;-54
2022/02/09 06:09:39;;;;;;;5.03;1.30;;;25.80;89.30;;;;;;5124610;28;20027;-56
2022/02/09 06:12:18;;;;;;;7.43;1.25;;;25.80;89.30;;;;;;5123968;28;20055;-52
2022/02/09 06:20:34;;;;;;;5.93;1.52;;;25.80;88.80;;;;;;5062360;28;20071;-54
2022/02/09 06:23:01;;;;;;;7.70;1.40;;;25.80;88.80;;;;;;5099577;28;20223;-53
2022/02/09 06:25:30;;;;;;;2.97;1.20;;;25.80;88.70;;;;;;5124843;28;20059;-54
2022/02/09 06:27:56;;;;;;;5.13;1.40;;;25.80;88.80;;;;;;5106316;28;20020;-59
2022/02/09 06:30:23;;;;;;;6.90;1.50;;;25.80;88.80;;;;;;5124734;28;20055;-55
2022/02/09 06:32:49;;;;;;;5.50;1.40;;;25.80;88.80;;;;;;5124228;28;20307;-56
2022/02/09 06:35:18;;;;;;;3.83;1.35;;;25.80;88.70;;;;;;5124604;28;20023;-54
2022/02/09 06:37:47;;;;;;;4.38;1.30;;;25.80;88.60;;;;;;5124281;28;20087;-53
2022/02/09 06:40:18;;;;;;;5.78;1.55;;;25.80;88.60;;;;;;5124707;28;20203;-56
2022/02/09 06:42:45;;;;;;;7.83;1.67;;;25.80;88.60;;;;;;5124418;28;20057;-54
2022/02/09 06:45:25;;;;;;;4.05;1.85;;;25.80;88.70;;;;;;5124590;28;20358;-54
2022/02/09 06:47:51;;;;;;;4.45;1.73;;;25.80;88.80;;;;;;5124202;28;20023;-56
2022/02/09 06:50:34;;;;;;;4.60;1.88;;;25.80;88.70;;;;;;5124549;28;20307;-54
2022/02/09 06:55:54;;;;;;;5.00;1.48;;;25.80;88.40;;;;;;5124153;28;20065;-57
2022/02/09 06:58:43;;;;;;;15.32;1.92;;;25.80;88.40;;;;;;5123892;28;20019;-53
2022/02/09 07:01:10;;;;;;;4.28;1.60;;;25.70;88.20;;;;;;5123640;28;20245;-54
2022/02/09 07:03:37;;;;;;;4.68;1.90;;;25.80;88.30;;;;;;5124016;28;20077;-53
2022/02/09 07:06:06;;;;;;;4.72;1.65;;;25.70;88.30;;;;;;5124094;28;20019;-56
2022/02/09 07:08:33;;;;;;;4.13;1.77;;;25.70;88.40;;;;;;5123781;28;20035;-62
2022/02/09 07:11:00;;;;;;;6.18;2.03;;;25.80;88.40;;;;;;5123887;28;20031;-53
2022/02/09 07:13:26;;;;;;;4.78;1.40;;;25.70;88.20;;;;;;5123837;28;20050;-54
2022/02/09 07:15:55;;;;;;;7.20;1.90;;;25.70;88.10;;;;;;5123661;28;20020;-54
2022/02/09 07:18:23;;;;;;;4.72;1.40;;;25.70;88.10;;;;;;5123780;28;20015;-57
2022/02/09 07:24:03;;;;;;;7.22;1.73;;;25.70;88.10;;;;;;5123927;28;20361;-53
2022/02/09 07:26:13;;;;;;;8.18;1.80;;;25.80;88.00;;;;;;5112674;28;20231;-55
2022/02/09 07:28:41;;;;;;;8.10;1.70;;;25.70;88.00;;;;;;5127249;28;20038;-49
2022/02/09 07:31:09;;;;;;;2.75;1.30;;;25.70;88.00;;;;;;5127285;28;20015;-54
2022/02/09 07:33:44;;;;;;;7.15;1.70;;;25.70;88.00;;;;;;5127202;28;20322;-54
2022/02/09 07:36:12;;;;;;;4.60;1.60;;;25.70;88.00;;;;;;5127243;28;20323;-53
2022/02/09 07:38:40;;;;;;;8.68;1.70;;;25.70;87.80;;;;;;5127424;28;20100;-52
2022/02/09 07:41:08;;;;;;;3.88;1.70;;;25.70;87.60;;;;;;5127305;28;20019;-55
2022/02/09 07:49:02;;;;;;;5.18;1.77;;;25.70;87.40;;;;;;5127103;28;20023;-56
2022/02/09 07:54:00;;;;;;;6.85;2.10;;;25.70;87.50;;;;;;5126989;28;20023;-59
2022/02/09 07:56:47;;;;;;;7.05;2.13;;;25.70;87.40;;;;;;5126720;28;20315;-51
2022/02/09 07:59:15;;;;;;;10.30;2.70;;;25.70;87.50;;;;;;5126837;28;20267;-53
2022/02/09 08:01:43;;;;;;;8.23;2.13;;;25.70;87.50;;;;;;5126561;28;20015;-56
2022/02/09 08:04:10;;;;;;;4.25;1.60;;;25.70;87.60;;;;;;5126883;28;20039;-53
2022/02/09 08:06:38;;;;;;;5.82;1.60;;;25.70;87.70;;;;;;5126565;28;20023;-61
2022/02/09 08:09:13;;;;;;;9.45;1.80;;;25.70;87.70;;;;;;5126805;28;20023;-59
2022/02/09 08:28:23;;;;;;;2.47;1.25;;;25.70;87.30;;;;;;5126161;28;20084;-52
2022/02/09 08:33:19;;;;;;;5.90;1.35;;;25.60;87.20;;;;;;5126150;28;20065;-51
2022/02/09 08:35:47;;;;;;;4.05;1.30;;;25.60;87.40;;;;;;5125895;28;20021;-56
2022/02/09 08:38:15;;;;;;;8.30;1.35;;;25.70;87.50;;;;;;5125751;28;20079;-57
2022/02/09 08:40:42;;;;;;;5.88;1.40;;;25.70;87.50;;;;;;5125951;28;20211;-53
2022/02/09 08:43:12;;;;;;;2.40;1.20;;;25.70;87.60;;;;;;5125940;28;20065;-59
2022/02/09 08:45:41;;;;;;;4.65;1.40;;;25.60;87.50;;;;;;5125961;28;20426;-56
2022/02/09 08:48:08;;;;;;;4.50;2.03;;;25.60;87.40;;;;;;5125871;28;20098;-54
2022/02/09 08:50:35;;;;;;;5.43;1.65;;;25.60;87.20;;;;;;5125746;28;20018;-54
2022/02/09 08:53:04;;;;;;;5.63;1.85;;;25.70;87.40;;;;;;5125716;28;20035;-53
2022/02/09 08:55:31;;;;;;;7.38;1.63;;;25.70;87.50;;;;;;5125601;28;20073;-53
2022/02/09 08:57:58;;;;;;;5.07;1.50;;;25.70;87.40;;;;;;5125984;28;20293;-57
2022/02/09 09:00:31;;;;;;;4.93;1.48;;;25.70;87.30;;;;;;5125945;28;20038;-59
2022/02/09 09:03:20;;;;;;;5.60;1.70;;;25.70;87.30;;;;;;5107358;28;20110;-56
2022/02/09 09:05:50;;;;;;;5.20;1.80;;;25.70;87.40;;;;;;5125445;28;20315;-52
2022/02/09 09:08:38;;;;;;;4.40;1.27;;;25.70;87.50;;;;;;5125416;28;20027;-53
2022/02/09 10:31:02;;;;;;;7.30;3.00;;;25.60;87.50;;;;;;5124896;28;20338;-55
2022/02/09 10:34:17;;;;;;;4.47;2.83;;;25.60;87.80;;;;;;5124657;28;20030;-57
2022/02/09 10:36:58;;;;;;;6.93;2.70;;;25.60;87.50;;;;;;5124196;28;20020;-51
2022/02/09 10:39:47;;;;;;;4.53;2.20;;;25.60;87.40;;;;;;5124385;28;20029;-56
2022/02/09 10:42:17;;;;;;;4.97;2.70;;;25.60;87.30;;;;;;5123901;28;20023;-55
2022/02/09 10:44:56;;;;;;;7.00;2.35;;;25.60;87.20;;;;;;5124363;28;20031;-56
2022/02/09 10:47:31;;;;;;;7.95;2.95;;;25.60;87.00;;;;;;5123958;28;20047;-56
2022/02/09 10:50:25;;;;;;;3.78;2.33;;;25.60;86.80;;;;;;5106279;28;20023;-60
2022/02/09 10:52:53;;;;;;;4.40;2.50;;;25.60;86.70;;;;;;5123900;28;20121;-55
2022/02/09 10:55:47;;;;;;;7.50;2.75;;;25.60;86.70;;;;;;5124293;28;20034;-55
2022/02/09 10:58:24;;;;;;;4.85;2.50;;;25.60;86.60;;;;;;5123803;28;20086;-53
2022/02/09 11:00:51;;;;;;;4.68;2.42;;;25.60;86.50;;;;;;5126826;28;20027;-60
2022/02/09 11:03:21;;;;;;;6.70;2.47;;;25.60;86.30;;;;;;5127846;28;20019;-55
2022/02/09 11:05:50;;;;;;;6.88;2.50;;;25.60;86.20;;;;;;5128227;28;20082;-56
2022/02/09 11:08:18;;;;;;;6.65;1.83;;;25.60;86.10;;;;;;5127924;28;20049;-51
2022/02/09 11:10:45;;;;;;;6.05;1.85;;;25.60;86.20;;;;;;5128092;28;20051;-54
2022/02/09 11:13:12;;;;;;;6.32;1.88;;;25.60;86.20;;;;;;5127824;28;20069;-57
2022/02/09 11:15:40;;;;;;;6.72;2.20;;;25.60;86.20;;;;;;5127865;28;20026;-55
2022/02/09 11:18:11;;;;;;;9.75;2.15;;;25.60;86.20;;;;;;5127535;28;20061;-58
2022/02/09 11:20:58;;;;;;;9.27;2.22;;;25.60;86.10;;;;;;5127779;28;20047;-61
2022/02/09 11:23:50;;;;;;;9.80;2.20;;;25.60;86.30;;;;;;5127488;28;20020;-55
2022/02/09 11:32:16;;;;;;;5.65;2.10;;;25.60;86.00;;;;;;5125759;28;20031;-61
2022/02/09 11:35:15;;;;;;;7.22;3.30;;;25.60;86.30;;;;;;5125992;28;20026;-60
2022/02/09 11:43:36;;;;;;;4.07;2.88;;;25.60;84.90;;;;;;5125587;28;20060;-58
2022/02/09 11:46:38;;;;;;;7.70;2.85;;;25.60;85.00;;;;;;5127391;28;20033;-62
2022/02/09 11:49:33;;;;;;;6.03;2.42;;;25.60;84.60;;;;;;5127504;28;20035;-60
2022/02/09 11:54:55;;;;;;;7.20;3.17;;;25.60;84.70;;;;;;5127680;28;20016;-60
2022/02/09 12:12:06;;;;;;;5.68;2.55;;;25.60;84.60;;;;;;5126312;28;20036;-57
2022/02/09 12:15:18;;;;;;;5.55;3.22;;;25.60;84.50;;;;;;5127113;28;20079;-52
2022/02/09 12:23:09;;;;;;;4.57;2.25;;;25.60;84.60;;;;;;5126505;28;20019;-59
2022/02/09 12:25:47;;;;;;;6.47;2.05;;;25.60;84.70;;;;;;5126666;28;20157;-57
2022/02/09 12:28:16;;;;;;;8.75;3.03;;;25.60;84.90;;;;;;5126448;28;20023;-56
2022/02/09 12:30:43;;;;;;;10.27;2.90;;;25.60;85.10;;;;;;5126272;28;20024;-58
2022/02/09 12:33:24;;;;;;;13.43;2.85;;;25.60;85.30;;;;;;5126601;28;20228;-53
2022/02/09 12:35:52;;;;;;;11.35;2.67;;;25.60;85.70;;;;;;5126157;28;20016;-52
2022/02/09 12:38:31;;;;;;;7.65;2.90;;;25.60;86.30;;;;;;5126589;28;20030;-57
2022/02/09 12:41:16;;;;;;;11.60;3.45;;;25.60;86.70;;;;;;5126301;28;20027;-55
2022/02/09 12:43:52;;;;;;;9.45;3.70;;;25.60;87.20;;;;;;5126268;28;20045;-56
2022/02/09 12:46:22;;;;;;;8.50;3.70;;;25.60;87.30;;;;;;5126298;28;20228;-54
2022/02/09 12:48:50;;;;;;;6.57;3.60;;;25.60;87.60;;;;;;5126178;28;20064;-55
2022/02/09 12:51:44;;;;;;;9.20;3.30;;;25.60;88.30;;;;;;5127297;28;20042;-58
2022/02/09 12:54:12;;;;;;;7.68;3.10;;;25.70;88.60;;;;;;5123111;28;20036;-58
2022/02/09 12:56:41;;;;;;;8.27;3.30;;;25.60;88.40;;;;;;5126132;28;20053;-58
2022/02/09 12:59:12;;;;;;;7.30;3.00;;;25.60;88.30;;;;;;5125987;28;20043;-49
2022/02/09 13:01:57;;;;;;;9.25;3.45;;;25.70;88.50;;;;;;5126163;28;20022;-54
2022/02/09 13:04:34;;;;;;;8.63;3.40;;;25.70;88.40;;;;;;5124683;28;20046;-56
2022/02/09 13:07:04;;;;;;;5.65;3.10;;;25.60;88.30;;;;;;5107432;28;20269;-56
2022/02/09 13:09:31;;;;;;;5.35;3.40;;;25.70;88.40;;;;;;5125776;28;20031;-56
2022/02/09 13:11:58;;;;;;;7.57;3.25;;;25.70;88.30;;;;;;5125436;28;20047;-61
2022/02/09 13:14:38;;;;;;;6.40;3.00;;;25.70;88.40;;;;;;5125845;28;20043;-56
2022/02/09 13:17:15;;;;;;;4.60;3.25;;;25.70;88.30;;;;;;5125386;28;20015;-58
2022/02/09 13:26:11;;;;;;;6.68;3.42;;;25.70;88.30;;;;;;5125639;28;20022;-53
2022/02/09 14:02:48;;;;;;;5.68;3.30;;;25.90;88.20;;;;;;5125141;28;20024;-52
2022/02/09 14:03:34;;;;;;;6.28;2.83;;;26.00;88.40;;;;;;5124935;28;20020;-57
2022/02/09 14:17:01;;;;;;;5.63;3.08;;;26.10;88.60;;;;;;5124717;28;20008;-55
2022/02/09 14:52:01;;;;;;;8.02;3.53;;;26.20;89.80;;;;;;5128119;28;20012;-54
2022/02/09 15:02:16;;;;;;;8.52;3.72;;;26.20;89.90;;;;;;5128187;28;20019;-57
2022/02/09 15:07:53;;;;;;;8.95;3.80;;;26.20;89.70;;;;;;5127854;28;20012;-54
2022/02/09 15:10:31;;;;;;;5.57;3.93;;;26.20;89.60;;;;;;5128521;28;20031;-55
2022/02/09 15:13:16;;;;;;;6.28;3.97;;;26.20;89.80;;;;;;5127912;28;20050;-57
2022/02/09 15:23:41;;;;;;;8.25;4.35;;;26.30;89.60;;;;;;5127783;28;20020;-60
2022/02/09 15:26:07;;;;;;;6.18;3.80;;;26.30;89.50;;;;;;5127644;28;20035;-55
2022/02/09 15:28:36;;;;;;;6.43;4.32;;;26.30;89.50;;;;;;5127801;28;20086;-60
2022/02/09 15:31:42;;;;;;;8.10;4.20;;;26.30;89.50;;;;;;5127537;28;20024;-58
2022/02/09 15:34:11;;;;;;;7.07;3.70;;;26.30;89.60;;;;;;5123579;28;20188;-62
2022/02/09 15:39:46;;;;;;;6.90;3.80;;;26.30;89.70;;;;;;5065082;28;20029;-62
2022/02/09 16:07:23;;;;;;;6.95;3.70;;;26.40;90.00;;;;;;5127078;28;20125;-54
2022/02/09 16:23:31;;;;;;;4.95;3.90;;;26.50;90.00;;;;;;5126582;28;20058;-55
2022/02/09 16:37:25;;;;;;;6.38;4.40;;;26.60;90.10;;;;;;5126349;28;20058;-57
2022/02/09 16:45:20;;;;;;;7.43;4.38;;;26.60;90.00;;;;;;5126353;28;20034;-58
2022/02/09 16:50:18;;;;;;;5.80;4.22;;;26.70;90.20;;;;;;5126410;28;20023;-60
2022/02/09 16:53:26;;;;;;;10.43;4.60;;;26.70;90.30;;;;;;5125608;28;20199;-55
2022/02/09 16:55:58;;;;;;;;;;;26.70;90.10;;;;;;5124266;28;20023;-57
2022/02/09 17:20:31;;;;;;;8.50;4.95;;;26.90;90.20;;;;;;5125751;28;20231;-58
2022/02/09 17:22:58;;;;;;;8.65;4.88;;;26.90;90.10;;;;;;5125205;28;20016;-52
2022/02/09 17:25:24;;;;;;;7.20;5.10;;;27.00;90.30;;;;;;5125606;28;20027;-53
2022/02/09 17:27:51;;;;;;;7.30;4.65;;;26.90;90.10;;;;;;5125256;28;20019;-55
2022/02/09 17:32:54;;;;;;;7.95;4.50;;;27.00;89.70;;;;;;5124925;28;20062;-54
2022/02/09 17:35:30;;;;;;;6.47;4.40;;;27.00;89.20;;;;;;5125491;28;20020;-60
2022/02/09 17:55:00;;;;;;;6.93;3.72;;;27.20;88.80;;;;;;5125352;28;20072;-60
2022/02/09 17:57:02;;;;;;;6.88;3.97;;;27.20;88.20;;;;;;5124229;28;20008;-57
2022/02/09 17:59:31;;;;;;;5.50;3.90;;;27.20;88.10;;;;;;5125197;28;20178;-57
2022/02/09 18:01:58;;;;;;;12.35;4.60;;;27.30;87.50;;;;;;5124872;28;20125;-52
2022/02/09 18:04:25;;;;;;;6.18;4.05;;;27.20;87.10;;;;;;5125515;28;20024;-59
2022/02/09 18:06:58;;;;;;;6.78;4.22;;;27.30;87.10;;;;;;5124620;28;20024;-58
2022/02/09 18:09:31;;;;;;;6.40;4.20;;;27.30;87.00;;;;;;5124460;28;20027;-58
2022/02/09 18:14:59;;;;;;;6.80;4.47;;;27.30;86.70;;;;;;5125090;28;20019;-56
2022/02/09 18:28:56;;;;;;;6.45;4.53;;;27.40;85.90;;;;;;5124500;28;20022;-61
2022/02/09 18:31:13;;;;;;;6.05;4.57;;;27.40;85.40;;;;;;5124289;28;20030;-56
2022/02/09 18:45:37;;;;;;;6.88;3.92;;;27.60;85.20;;;;;;5124778;28;20031;-55
2022/02/09 18:47:44;;;;;;;5.75;4.70;;;27.60;84.60;;;;;;5116987;28;20030;-55
2022/02/09 19:04:04;;;;;;;14.63;5.00;;;27.70;84.50;;;;;;5117072;28;20027;-55
2022/02/09 19:19:59;;;;;;;15.90;4.97;;;27.80;84.40;;;;;;5124464;28;20047;-54
2022/02/09 19:30:55;;;;;;;8.90;4.50;;;27.90;84.00;;;;;;5127664;28;20024;-59
2022/02/09 19:40:31;;;;;;;10.50;4.45;;;27.90;84.00;;;;;;5125298;28;20635;-55
2022/02/09 19:47:39;;;;;;;8.20;4.57;;;28.00;83.80;;;;;;5127315;28;20099;-55
2022/02/09 19:52:46;;;;;;;8.38;5.10;;;28.10;84.00;;;;;;5108133;28;20016;-56
2022/02/09 19:57:54;;;;;;;8.52;5.05;;;28.20;84.40;;;;;;5106769;28;20071;-61
2022/02/09 20:00:32;;;;;;;8.88;5.07;;;28.20;84.30;;;;;;5106950;28;20250;-52
2022/02/09 20:02:59;;;;;;;6.70;5.05;;;28.20;83.90;;;;;;5106596;28;20020;-61
2022/02/09 20:05:26;;;;;;;10.90;4.80;;;28.30;84.20;;;;;;5107035;28;20035;-52
2022/02/09 20:07:55;;;;;;;7.22;4.97;;;28.30;84.10;;;;;;5106180;28;20024;-52
2022/02/09 20:10:23;;;;;;;6.72;4.72;;;28.30;83.90;;;;;;5106949;28;20030;-59
2022/02/09 20:12:50;;;;;;;9.52;5.22;;;28.30;84.10;;;;;;5112810;28;20054;-60
2022/02/09 20:15:17;;;;;;;9.93;5.75;;;28.30;84.60;;;;;;5127816;28;20327;-56
2022/02/09 20:17:47;;;;;;;7.63;4.78;;;28.30;84.70;;;;;;5125438;28;20043;-58
2022/02/09 20:20:22;;;;;;;10.18;5.50;;;28.30;84.70;;;;;;5125094;28;20023;-60
2022/02/09 20:22:52;;;;;;;9.50;5.38;;;28.30;84.80;;;;;;5125005;28;20019;-56
2022/02/09 20:25:19;;;;;;;9.73;5.90;;;28.30;84.80;;;;;;5126677;28;20031;-61
2022/02/09 20:27:49;;;;;;;11.52;5.93;;;28.30;84.90;;;;;;5126559;28;20030;-59
2022/02/09 20:30:19;;;;;;;8.57;6.10;;;28.20;85.00;;;;;;5126813;28;20028;-56
2022/02/09 20:32:51;;;;;;;10.15;5.80;;;28.30;85.00;;;;;;5125774;28;20075;-61
2022/02/09 20:35:30;;;;;;;8.38;6.05;;;28.30;85.10;;;;;;5126828;28;20030;-59
2022/02/09 20:37:57;;;;;;;6.88;5.50;;;28.30;85.00;;;;;;5126052;28;20064;-53
2022/02/09 20:40:27;;;;;;;9.38;6.05;;;28.30;85.10;;;;;;5126870;28;20020;-50
2022/02/09 20:42:59;;;;;;;9.07;5.85;;;28.20;85.10;;;;;;5126180;28;20338;-56
2022/02/09 20:48:07;;;;;;;8.05;6.07;;;28.30;85.20;;;;;;5126342;28;20016;-58
2022/02/09 20:50:36;;;;;;;9.13;6.50;;;28.20;85.10;;;;;;5125978;28;20214;-53
2022/02/09 20:53:03;;;;;;;7.40;5.95;;;28.30;85.20;;;;;;5126167;28;20046;-61
2022/02/09 20:55:30;;;;;;;8.68;6.45;;;28.30;85.30;;;;;;5126112;28;20043;-55
2022/02/09 20:57:58;;;;;;;12.05;6.85;;;28.30;85.30;;;;;;5125714;28;20027;-63
2022/02/09 21:00:35;;;;;;;8.80;6.40;;;28.30;85.40;;;;;;5126928;28;20035;-56
2022/02/09 21:03:39;;;;;;;11.20;5.95;;;28.30;85.40;;;;;;5125716;28;20181;-59
2022/02/09 21:08:43;;;;;;;8.68;6.13;;;28.30;85.40;;;;;;5125750;28;20211;-54
2022/02/09 21:13:54;;;;;;;8.10;6.05;;;28.30;85.40;;;;;;5101356;28;20043;-54
2022/02/09 21:21:53;;;;;;;6.65;5.70;;;28.30;85.70;;;;;;5105213;28;19971;-59
2022/02/09 21:44:29;;;;;;;8.00;5.55;;;28.40;86.10;;;;;;5104067;28;20062;-55
2022/02/09 21:50:08;;;;;;;6.63;5.80;;;28.30;86.00;;;;;;5104861;28;20042;-55
2022/02/09 21:55:10;;;;;;;9.93;6.07;;;28.40;86.00;;;;;;5104550;28;20020;-57
2022/02/09 21:57:55;;;;;;;7.68;6.40;;;28.40;86.00;;;;;;5104383;28;20039;-57
2022/02/09 22:27:27;;;;;;;9.00;5.97;;;28.40;85.40;;;;;;5104378;28;20229;-60
2022/02/09 22:49:19;;;;;;;9.13;6.53;;;28.40;85.60;;;;;;5103991;28;20019;-58
2022/02/09 22:54:44;;;;;;;8.80;6.85;;;28.40;85.60;;;;;;5105074;28;20039;-59
2022/02/09 22:57:12;;;;;;;10.13;6.72;;;28.40;85.70;;;;;;5107872;28;20303;-59
2022/02/09 22:59:46;;;;;;;9.00;7.03;;;28.40;85.80;;;;;;5108122;28;20016;-57
2022/02/09 23:02:24;;;;;;;11.65;7.10;;;28.40;85.80;;;;;;5107723;28;20048;-55
2022/02/09 23:05:16;;;;;;;10.85;7.38;;;28.40;85.90;;;;;;5107975;28;20098;-57
2022/02/09 23:13:21;;;;;;;11.20;8.13;;;28.40;86.00;;;;;;5098726;27;20052;-55
2022/02/09 23:23:58;;;;;;;11.60;8.18;;;28.40;86.40;;;;;;5148675;27;20023;-57
